Time,TemperatureF,DewpointF,PressureIn,WindDirection,WindDirectionDegrees,WindSpeedMPH,WindSpeedGustMPH,Humidity,HourlyPrecipIn,Conditions,Clouds,dailyrainin,SoftwareType,DateUTC
2013-06-30 18:48:00,94.3,64.7,27.22,WNW,293,6.0,6.0,38,0.02,,,0.00,WUHU216HW,2013-07-01 01:48:00,
2013-06-30 18:53:00,80.6,62.9,27.21,NNW,338,8.3,12.8,55,0.08,,,0.06,WUHU216HW,2013-07-01 01:53:00,
2013-06-30 18:58:00,80.3,61.6,27.20,WSW,248,8.9,12.8,53,0.08,,,0.06,WUHU216HW,2013-07-01 01:58:00,
2013-06-30 19:03:00,82.1,62.6,27.20,NNW,338,10.7,12.1,52,0.08,,,0.06,WUHU216HW,2013-07-01 02:03:00,
2013-06-30 19:08:00,82.3,64.9,27.21,NW,315,9.2,11.4,56,0.08,,,0.06,WUHU216HW,2013-07-01 02:08:00,
2013-06-30 19:13:00,81.9,64.1,27.22,NW,315,5.8,11.6,55,0.08,,,0.06,WUHU216HW,2013-07-01 02:13:00,
2013-06-30 19:18:00,82.1,63.7,27.22,NW,315,3.6,11.6,54,0.08,,,0.06,WUHU216HW,2013-07-01 02:18:00,
2013-06-30 19:23:00,82.3,61.7,27.23,West,270,5.8,10.3,50,0.08,,,0.06,WUHU216HW,2013-07-01 02:23:00,
2013-06-30 19:28:00,82.6,61.5,27.23,NNE,23,9.6,11.4,49,0.08,,,0.06,WUHU216HW,2013-07-01 02:28:00,
2013-06-30 19:33:00,83.0,61.8,27.24,NE,45,6.9,11.4,49,0.08,,,0.06,WUHU216HW,2013-07-01 02:33:00,
2013-06-30 19:38:00,83.2,61.4,27.25,NW,315,8.5,10.7,48,0.08,,,0.06,WUHU216HW,2013-07-01 02:38:00,
2013-06-30 19:43:00,83.3,60.9,27.25,WNW,293,7.4,9.6,47,0.07,,,0.06,WUHU216HW,2013-07-01 02:43:00,
2013-06-30 19:48:00,83.3,60.3,27.25,West,270,5.1,9.6,46,0.00,,,0.06,WUHU216HW,2013-07-01 02:48:00,
2013-06-30 19:53:00,83.5,60.5,27.26,NNW,338,6.5,8.5,46,0.00,,,0.06,WUHU216HW,2013-07-01 02:53:00,
2013-06-30 19:58:00,83.7,60.0,27.27,NNE,23,7.2,8.3,45,0.00,,,0.06,WUHU216HW,2013-07-01 02:58:00,
2013-06-30 20:03:00,83.2,60.8,27.27,NE,45,5.4,8.3,47,0.00,,,0.06,WUHU216HW,2013-07-01 03:03:00,
2013-06-30 20:08:00,82.3,60.6,27.28,SSW,203,5.6,7.6,48,0.00,,,0.06,WUHU216HW,2013-07-01 03:08:00,
2013-06-30 20:13:00,81.9,60.9,27.28,NNE,23,5.4,6.5,49,0.00,,,0.06,WUHU216HW,2013-07-01 03:13:00,
2013-06-30 20:18:00,81.7,60.0,27.28,NNW,338,5.1,7.6,48,0.00,,,0.06,WUHU216HW,2013-07-01 03:18:00,
2013-06-30 20:23:00,81.7,60.0,27.28,North,0,5.4,8.5,48,0.00,,,0.06,WUHU216HW,2013-07-01 03:23:00,
2013-06-30 20:28:00,81.5,59.9,27.28,NNW,338,8.3,9.8,48,0.00,,,0.06,WUHU216HW,2013-07-01 03:28:00,
2013-06-30 20:33:00,81.2,60.8,27.28,WNW,293,5.4,9.8,50,0.00,,,0.06,WUHU216HW,2013-07-01 03:33:00,
2013-06-30 20:38:00,81.0,60.7,27.28,North,0,4.3,8.3,50,0.00,,,0.06,WUHU216HW,2013-07-01 03:38:00,
2013-06-30 20:43:00,81.0,60.0,27.29,WNW,293,6.9,7.6,49,0.00,,,0.06,WUHU216HW,2013-07-01 03:43:00,
2013-06-30 20:48:00,80.8,59.9,27.28,NE,45,6.3,8.5,49,0.00,,,0.06,WUHU216HW,2013-07-01 03:48:00,
2013-06-30 20:53:00,80.1,60.3,27.28,WNW,293,5.1,10.5,51,0.00,,,0.06,WUHU216HW,2013-07-01 03:53:00,
2013-06-30 20:58:00,79.6,60.9,27.30,West,270,4.0,10.5,53,0.00,,,0.06,WUHU216HW,2013-07-01 03:58:00,
2013-06-30 21:01:00,79.2,61.1,27.30,NNW,338,6.3,9.2,54,0.00,,,0.06,WUHU216HW,2013-07-01 04:01:00,
2013-06-30 21:06:00,78.8,61.3,27.30,West,270,3.4,9.2,55,0.00,,,0.06,WUHU216HW,2013-07-01 04:06:00,
2013-06-30 21:11:00,78.5,61.5,27.30,NW,315,4.0,7.6,56,0.00,,,0.06,WUHU216HW,2013-07-01 04:11:00,
2013-06-30 21:16:00,78.5,60.9,27.30,NW,315,4.3,7.6,55,0.00,,,0.06,WUHU216HW,2013-07-01 04:16:00,
2013-06-30 21:21:00,78.8,60.2,27.30,NW,315,7.6,7.6,53,0.00,,,0.06,WUHU216HW,2013-07-01 04:21:00,
2013-06-30 21:26:00,79.2,60.0,27.30,SE,135,5.4,9.8,52,0.00,,,0.06,WUHU216HW,2013-07-01 04:26:00,
2013-06-30 21:31:00,79.2,59.5,27.31,North,0,10.7,10.7,51,0.00,,,0.06,WUHU216HW,2013-07-01 04:31:00,
2013-06-30 21:36:00,79.0,59.9,27.31,NNW,338,5.1,10.7,52,0.00,,,0.06,WUHU216HW,2013-07-01 04:36:00,
2013-06-30 21:41:00,78.5,60.4,27.32,NE,45,4.5,10.5,54,0.00,,,0.06,WUHU216HW,2013-07-01 04:41:00,
2013-06-30 21:46:00,78.1,61.1,27.32,NNW,338,6.3,10.5,56,0.00,,,0.06,WUHU216HW,2013-07-01 04:46:00,
2013-06-30 21:51:00,77.9,60.9,27.33,NW,315,6.9,10.3,56,0.00,,,0.06,WUHU216HW,2013-07-01 04:51:00,
2013-06-30 21:56:00,77.8,61.3,27.32,North,0,6.9,9.6,57,0.00,,,0.06,WUHU216HW,2013-07-01 04:56:00,
2013-06-30 22:01:00,77.6,61.1,27.32,North,0,6.3,8.5,57,0.00,,,0.06,WUHU216HW,2013-07-01 05:01:00,
2013-06-30 22:06:00,77.6,61.1,27.32,NW,315,5.4,8.5,57,0.00,,,0.06,WUHU216HW,2013-07-01 05:06:00,
2013-06-30 22:11:00,77.8,60.3,27.33,North,0,6.0,8.5,55,0.00,,,0.06,WUHU216HW,2013-07-01 05:11:00,
2013-06-30 22:16:00,77.8,60.3,27.33,NNE,23,4.9,8.3,55,0.00,,,0.06,WUHU216HW,2013-07-01 05:16:00,
2013-06-30 22:21:00,78.1,60.1,27.34,NNE,23,4.3,7.4,54,0.00,,,0.06,WUHU216HW,2013-07-01 05:21:00,
2013-06-30 22:26:00,78.3,59.8,27.35,NNW,338,2.9,6.7,53,0.00,,,0.06,WUHU216HW,2013-07-01 05:26:00,
2013-06-30 22:31:00,78.5,59.4,27.35,NW,315,0.9,5.6,52,0.00,,,0.06,WUHU216HW,2013-07-01 05:31:00,
2013-06-30 22:36:00,78.5,58.9,27.36,NW,315,0.0,3.6,51,0.00,,,0.06,WUHU216HW,2013-07-01 05:36:00,
2013-06-30 22:41:00,78.7,59.1,27.36,NW,315,1.3,4.0,51,0.00,,,0.06,WUHU216HW,2013-07-01 05:41:00,
2013-06-30 22:46:00,78.8,58.1,27.36,NNW,338,2.2,5.8,49,0.00,,,0.06,WUHU216HW,2013-07-01 05:46:00,
2013-06-30 22:51:00,79.6,58.2,27.36,WNW,293,1.8,5.8,48,0.00,,,0.06,WUHU216HW,2013-07-01 05:51:00,
2013-06-30 22:56:00,79.7,58.2,27.37,NW,315,1.1,3.1,48,0.00,,,0.06,WUHU216HW,2013-07-01 05:56:00,
2013-06-30 23:01:00,79.7,58.9,27.38,SE,135,1.1,3.1,49,0.00,,,0.06,WUHU216HW,2013-07-01 06:01:00,
2013-06-30 23:06:00,79.9,59.0,27.38,NW,315,1.6,2.5,49,0.00,,,0.06,WUHU216HW,2013-07-01 06:06:00,
2013-06-30 23:11:00,79.9,59.0,27.37,North,0,0.7,2.5,49,0.00,,,0.06,WUHU216HW,2013-07-01 06:11:00,
2013-06-30 23:16:00,80.1,59.2,27.37,NW,315,0.0,2.5,49,0.00,,,0.06,WUHU216HW,2013-07-01 06:16:00,
2013-06-30 23:21:00,80.1,59.9,27.35,West,270,1.6,2.5,50,0.00,,,0.06,WUHU216HW,2013-07-01 06:21:00,
2013-06-30 23:26:00,80.3,60.5,27.33,SE,135,4.5,4.5,51,0.00,,,0.06,WUHU216HW,2013-07-01 06:26:00,
2013-06-30 23:31:00,79.9,57.8,27.31,NE,45,4.0,6.9,47,0.00,,,0.06,WUHU216HW,2013-07-01 06:31:00,
2013-06-30 23:36:00,80.3,57.5,27.33,NNW,338,3.4,7.8,46,0.00,,,0.06,WUHU216HW,2013-07-01 06:36:00,
2013-06-30 23:41:00,80.3,58.8,27.33,West,270,1.8,7.8,48,0.00,,,0.06,WUHU216HW,2013-07-01 06:41:00,
2013-06-30 23:46:00,80.3,58.1,27.33,ESE,113,0.9,5.4,47,0.00,,,0.06,WUHU216HW,2013-07-01 06:46:00,
2013-06-30 23:51:00,80.1,58.0,27.32,East,90,1.8,3.1,47,0.00,,,0.06,WUHU216HW,2013-07-01 06:51:00,
2013-06-30 23:56:00,79.9,59.0,27.31,SE,135,0.7,2.9,49,0.00,,,0.06,WUHU216HW,2013-07-01 06:56:00,